createdAt,value
2022-08-19T10:33:04.370Z,16.08
2022-08-19T10:36:19.232Z,15.85
2022-08-19T10:39:23.530Z,15.20
2022-08-19T10:42:27.815Z,14.50
2022-08-19T10:45:32.013Z,13.82
2022-08-19T10:48:37.647Z,14.60
2022-08-19T10:52:00.633Z,15.05
2022-08-19T10:55:25.389Z,13.60
2022-08-19T10:58:33.472Z,13.27
2022-08-19T11:01:37.707Z,13.98
2022-08-19T11:04:41.975Z,13.38
2022-08-19T11:07:46.293Z,13.15
2022-08-19T11:10:50.666Z,12.00
2022-08-19T11:13:55.505Z,12.98
2022-08-19T11:16:59.763Z,12.88
2022-08-19T11:20:06.392Z,12.30
2022-08-19T11:23:10.109Z,11.43
2022-08-19T11:26:15.719Z,12.48
2022-08-19T11:29:22.265Z,11.77
2022-08-19T11:32:26.197Z,10.85
2022-08-19T11:35:30.377Z,10.63
2022-08-19T11:38:36.285Z,10.82
2022-08-19T11:41:41.094Z,10.27
2022-08-19T11:44:44.806Z,9.50
2022-08-19T11:47:48.852Z,9.63
2022-08-19T11:50:56.339Z,9.55
2022-08-19T11:54:00.970Z,9.80
2022-08-19T11:57:05.078Z,10.60
2022-08-19T12:00:12.597Z,10.40
2022-08-19T12:03:16.689Z,11.30
2022-08-19T12:06:34.896Z,10.82
2022-08-19T12:09:42.805Z,11.20
2022-08-19T12:12:47.377Z,10.63
2022-08-19T12:15:57.995Z,10.57
2022-08-19T12:19:04.736Z,10.38
2022-08-19T12:22:09.384Z,9.45
2022-08-19T12:25:13.343Z,9.45
2022-08-19T12:28:18.970Z,9.98
2022-08-19T12:31:22.938Z,10.52
2022-08-19T12:34:30.878Z,9.70
2022-08-19T12:37:34.876Z,9.60
2022-08-19T12:40:40.947Z,9.23
2022-08-19T12:43:45.965Z,10.98
2022-08-19T12:46:50.409Z,11.65
2022-08-19T12:49:58.248Z,12.35
2022-08-19T12:53:02.640Z,11.82
2022-08-19T12:56:12.140Z,11.68
2022-08-19T12:59:18.551Z,9.95
2022-08-19T13:02:23.446Z,10.38
2022-08-19T13:05:30.679Z,12.43
2022-08-19T13:08:34.430Z,10.85
2022-08-19T13:11:38.963Z,10.00
2022-08-19T13:14:43.429Z,10.70
2022-08-19T13:17:51.987Z,9.60
2022-08-19T13:20:57.366Z,11.50
2022-08-19T13:24:01.796Z,10.15
2022-08-19T13:27:05.919Z,11.73
2022-08-19T13:30:31.533Z,12.13
2022-08-19T13:33:36.464Z,12.57
2022-08-19T13:36:40.560Z,11.73
2022-08-19T13:39:45.976Z,11.40
2022-08-19T13:42:52.814Z,12.57
2022-08-19T13:45:57.685Z,11.00
2022-08-19T13:49:01.988Z,12.90
2022-08-19T13:52:06.720Z,10.30
2022-08-19T13:55:12.277Z,12.60
2022-08-19T13:58:16.186Z,11.02
2022-08-19T14:01:24.345Z,11.00
2022-08-19T14:04:28.805Z,11.88
2022-08-19T14:07:33.052Z,12.48
2022-08-19T14:10:37.308Z,11.93
2022-08-19T14:13:41.994Z,12.35
2022-08-19T14:16:46.014Z,12.35
2022-08-19T14:19:50.454Z,12.32
2022-08-19T14:22:55.676Z,11.23
2022-08-19T14:26:08.346Z,10.30
2022-08-19T14:29:13.530Z,8.75
2022-08-19T14:32:17.763Z,9.65
2022-08-19T14:35:25.871Z,10.50
2022-08-19T14:38:32.361Z,10.45
2022-08-19T14:41:36.898Z,9.18
2022-08-19T14:44:41.806Z,9.32
2022-08-19T14:47:46.172Z,8.95
2022-08-19T14:50:50.315Z,9.10
2022-08-19T14:53:54.827Z,9.63
2022-08-19T14:56:58.891Z,9.20
2022-08-19T15:00:04.576Z,9.27
2022-08-19T15:03:08.420Z,8.70
2022-08-19T15:06:12.924Z,8.05
2022-08-19T15:09:17.404Z,8.95
2022-08-19T15:12:22.876Z,10.40
2022-08-19T15:15:27.223Z,10.15
2022-08-19T15:18:31.530Z,11.18
2022-08-19T15:21:37.215Z,12.57
2022-08-19T15:24:47.926Z,12.90
2022-08-19T15:27:53.846Z,12.73
2022-08-19T15:30:57.917Z,13.52
2022-08-19T15:34:02.985Z,13.85
2022-08-19T15:37:07.538Z,13.43
2022-08-19T15:40:12.590Z,14.02
2022-08-19T15:43:18.737Z,13.95
2022-08-19T15:46:28.247Z,14.18
2022-08-19T15:49:33.250Z,14.68
2022-08-19T15:52:37.045Z,14.02
2022-08-19T15:55:52.680Z,14.10
2022-08-19T15:59:15.458Z,13.77
2022-08-19T16:02:39.849Z,13.73
2022-08-19T16:06:02.568Z,13.45
2022-08-19T16:09:06.909Z,12.80
2022-08-19T16:12:11.063Z,12.95
2022-08-19T16:15:15.160Z,13.38
2022-08-19T16:18:19.084Z,12.63
2022-08-19T16:21:26.076Z,12.98
2022-08-19T16:24:30.346Z,14.00
2022-08-19T16:27:34.837Z,13.38
2022-08-19T16:30:39.927Z,12.30
2022-08-19T16:33:43.812Z,11.43
2022-08-19T16:36:48.491Z,11.73
2022-08-19T16:39:52.627Z,11.52
2022-08-19T16:42:56.936Z,12.18
2022-08-19T16:46:01.530Z,12.35
2022-08-19T16:49:05.868Z,12.43
2022-08-19T16:52:10.335Z,12.13
2022-08-19T16:55:14.771Z,11.98
2022-08-19T16:58:20.563Z,12.27
2022-08-19T17:01:32.425Z,11.00
2022-08-19T17:04:36.397Z,10.90
2022-08-19T17:07:39.904Z,11.85
2022-08-19T17:10:56.857Z,10.90
2022-08-19T17:14:08.674Z,11.35
2022-08-19T17:17:12.987Z,11.73
2022-08-19T17:20:17.159Z,10.88
2022-08-19T17:23:42.438Z,10.95
2022-08-19T17:26:47.478Z,11.10
2022-08-19T17:29:53.132Z,11.52
2022-08-19T17:32:57.746Z,11.25
2022-08-19T17:36:04.203Z,10.88
2022-08-19T17:39:08.628Z,10.32
2022-08-19T17:42:12.466Z,9.75
2022-08-19T17:45:17.794Z,9.70
2022-08-19T17:48:22.031Z,10.20
2022-08-19T17:51:42.148Z,9.68
2022-08-19T17:54:46.407Z,10.00
2022-08-19T17:57:51.203Z,10.10
2022-08-19T18:00:55.467Z,10.18
2022-08-19T18:04:01.636Z,10.82
2022-08-19T18:07:06.841Z,10.20
2022-08-19T18:10:11.823Z,10.13
2022-08-19T18:13:17.417Z,10.50
2022-08-19T18:16:22.192Z,10.00
2022-08-19T18:19:29.476Z,9.27
2022-08-19T18:22:48.473Z,9.23
2022-08-19T18:25:52.666Z,9.77
2022-08-19T18:28:57.228Z,10.57
2022-08-19T18:32:01.317Z,10.30
2022-08-19T18:35:11.764Z,10.32
2022-08-19T18:38:37.267Z,10.68
2022-08-19T18:41:59.947Z,11.70
2022-08-19T18:45:24.300Z,11.70
2022-08-19T18:48:47.039Z,11.50
2022-08-19T18:51:51.623Z,11.33
2022-08-19T18:54:55.320Z,10.50
2022-08-19T18:57:59.309Z,10.80
2022-08-19T19:01:11.500Z,11.48
2022-08-19T19:04:21.715Z,12.03
2022-08-19T19:07:26.350Z,10.88
2022-08-19T19:10:30.180Z,10.90
2022-08-19T19:13:37.496Z,11.00
2022-08-19T19:16:45.779Z,10.65
2022-08-19T19:19:51.272Z,11.52
2022-08-19T19:22:56.045Z,10.85
2022-08-19T19:26:02.438Z,10.85
2022-08-19T19:29:06.661Z,11.07
2022-08-19T19:32:18.424Z,10.27
2022-08-19T19:35:22.734Z,11.15
2022-08-19T19:38:26.949Z,11.50
2022-08-19T19:41:33.019Z,11.95
2022-08-19T19:44:41.287Z,11.52
2022-08-19T19:47:51.386Z,11.75
2022-08-19T19:50:56.504Z,12.25
2022-08-19T19:54:01.854Z,12.45
2022-08-19T19:57:06.100Z,10.65
2022-08-19T20:00:15.258Z,12.00
2022-08-19T20:03:20.771Z,12.32
2022-08-19T20:06:24.614Z,13.52
2022-08-19T20:09:49.650Z,13.40
2022-08-19T20:12:54.796Z,12.68
2022-08-19T20:15:59.358Z,12.98
2022-08-19T20:19:03.639Z,12.60
2022-08-19T20:22:07.685Z,11.75
2022-08-19T20:25:12.636Z,12.80
2022-08-19T20:28:17.437Z,12.35
2022-08-19T20:31:22.096Z,11.40
2022-08-19T20:34:27.407Z,13.27
2022-08-19T20:37:31.720Z,13.48
2022-08-19T20:40:36.644Z,14.70
2022-08-19T20:43:40.942Z,15.30
2022-08-19T20:46:54.225Z,15.20
2022-08-19T20:49:59.742Z,14.48
2022-08-19T20:53:15.007Z,15.63
2022-08-19T20:56:19.029Z,15.35
2022-08-19T20:59:23.977Z,14.75
2022-08-19T21:02:27.926Z,15.85
2022-08-19T21:05:32.001Z,16.58
2022-08-19T21:08:37.177Z,16.15
2022-08-19T21:11:41.473Z,16.08
2022-08-19T21:14:47.091Z,16.77
2022-08-19T21:17:51.911Z,16.58
2022-08-19T21:20:56.286Z,15.35
2022-08-19T21:24:01.205Z,15.43
2022-08-19T21:27:05.641Z,16.17
2022-08-19T21:30:10.455Z,16.48
2022-08-19T21:33:15.032Z,16.23
2022-08-19T21:36:20.473Z,15.93
2022-08-19T21:39:24.815Z,15.18
2022-08-19T21:42:29.254Z,15.35
2022-08-19T21:45:33.783Z,15.55
2022-08-19T21:48:37.905Z,14.30
2022-08-19T21:51:42.062Z,15.25
2022-08-19T21:54:46.024Z,15.38
2022-08-19T21:57:50.112Z,15.68
2022-08-19T22:00:54.330Z,17.17
2022-08-19T22:03:58.935Z,16.77
2022-08-19T22:07:03.218Z,17.30
2022-08-19T22:10:07.995Z,17.63
2022-08-19T22:13:11.768Z,17.38
2022-08-19T22:16:17.965Z,16.48
2022-08-19T22:19:21.694Z,18.25
2022-08-19T22:22:29.670Z,17.95
2022-08-19T22:25:38.060Z,17.92
2022-08-19T22:28:42.782Z,19.00
2022-08-19T22:31:54.311Z,18.70
2022-08-19T22:35:00.553Z,17.83
2022-08-19T22:38:07.112Z,18.13
2022-08-19T22:41:11.578Z,19.10
2022-08-19T22:44:15.625Z,19.15
2022-08-19T22:47:19.775Z,20.73
2022-08-19T22:50:24.335Z,19.92
2022-08-19T22:53:28.379Z,18.80
2022-08-19T22:56:32.158Z,19.70
2022-08-19T22:59:36.197Z,19.88
2022-08-19T23:02:52.356Z,20.50
2022-08-19T23:05:56.839Z,19.42
2022-08-19T23:09:01.420Z,18.85
2022-08-19T23:12:08.616Z,19.60
2022-08-19T23:15:19.702Z,20.65
2022-08-19T23:18:24.011Z,20.42
2022-08-19T23:21:28.117Z,21.45
2022-08-19T23:24:31.866Z,22.75
2022-08-19T23:27:54.856Z,23.60
2022-08-19T23:30:58.897Z,22.77
2022-08-19T23:34:05.843Z,21.75
2022-08-19T23:37:09.709Z,21.67
2022-08-19T23:40:16.298Z,22.85
2022-08-19T23:43:24.466Z,22.48
2022-08-19T23:46:29.410Z,22.80
2022-08-19T23:49:35.623Z,22.88
2022-08-19T23:52:54.801Z,24.35
2022-08-19T23:55:58.871Z,21.80
2022-08-19T23:59:02.920Z,22.25
